createdAt,value
2018-03-14T00:02:12.444Z,94.90
2018-03-14T00:04:40.740Z,95.00
2018-03-14T00:07:09.057Z,94.70
2018-03-14T00:09:36.580Z,94.70
2018-03-14T00:12:05.651Z,95.00
2018-03-14T00:14:33.182Z,95.00
2018-03-14T00:17:00.741Z,94.90
2018-03-14T00:19:29.039Z,94.60
2018-03-14T00:21:57.356Z,94.80
2018-03-14T00:24:24.888Z,94.80
2018-03-14T00:26:53.195Z,94.40
2018-03-14T00:29:22.498Z,94.20
2018-03-14T00:31:50.827Z,94.40
2018-03-14T00:34:18.419Z,94.40
2018-03-14T00:36:45.970Z,94.20
2018-03-14T00:39:13.507Z,94.30
2018-03-14T00:41:41.832Z,94.10
2018-03-14T00:44:09.363Z,94.10
2018-03-14T00:46:38.492Z,93.90
2018-03-14T00:49:06.775Z,94.10
2018-03-14T00:51:34.341Z,94.00
2018-03-14T00:54:02.637Z,93.80
2018-03-14T00:56:30.197Z,93.80
2018-03-14T00:58:58.492Z,94.20
2018-03-14T01:01:26.780Z,94.40
2018-03-14T01:03:55.099Z,94.20
2018-03-14T01:06:22.650Z,94.40
2018-03-14T01:08:50.947Z,94.40
2018-03-14T01:11:18.472Z,94.40
2018-03-14T01:13:46.028Z,93.80
2018-03-14T01:16:13.556Z,93.30
2018-03-14T01:18:41.863Z,92.90
2018-03-14T01:21:09.387Z,92.90
2018-03-14T01:23:36.924Z,93.20
2018-03-14T01:26:04.460Z,93.10
2018-03-14T01:28:32.782Z,93.30
2018-03-14T01:31:00.308Z,93.30
2018-03-14T01:33:28.716Z,93.80
2018-03-14T01:35:56.250Z,93.80
2018-03-14T01:38:23.799Z,93.80
2018-03-14T01:40:51.324Z,94.00
2018-03-14T01:43:19.632Z,93.60
2018-03-14T01:45:47.149Z,93.60
2018-03-14T01:48:14.679Z,94.00
2018-03-14T01:50:42.204Z,94.20
2018-03-14T01:53:21.544Z,94.30
2018-03-14T01:55:49.071Z,94.40
2018-03-14T01:58:17.339Z,94.10
2018-03-14T02:00:45.664Z,94.10
2018-03-14T02:03:13.212Z,94.10
2018-03-14T02:05:40.830Z,94.10
2018-03-14T02:08:08.467Z,94.00
2018-03-14T02:10:36.001Z,94.10
2018-03-14T02:13:03.568Z,94.30
2018-03-14T02:15:31.086Z,94.10
2018-03-14T02:17:58.616Z,94.10
2018-03-14T02:20:26.931Z,94.70
2018-03-14T02:22:54.481Z,94.50
2018-03-14T02:25:22.036Z,94.00
2018-03-14T02:27:49.571Z,94.30
2018-03-14T02:30:17.128Z,94.40
2018-03-14T02:32:44.656Z,94.50
2018-03-14T02:35:12.208Z,94.60
2018-03-14T02:37:39.743Z,94.60
2018-03-14T02:40:07.288Z,94.90
2018-03-14T02:42:35.580Z,94.50
2018-03-14T02:45:03.932Z,94.60
2018-03-14T02:47:31.457Z,94.50
2018-03-14T02:49:59.767Z,94.70
2018-03-14T02:52:27.276Z,94.70
2018-03-14T02:54:54.804Z,94.80
2018-03-14T02:57:22.315Z,95.00
2018-03-14T02:59:49.845Z,95.10
2018-03-14T03:02:18.120Z,95.00
2018-03-14T03:04:45.952Z,95.00
2018-03-14T03:07:13.469Z,95.50
2018-03-14T03:09:40.988Z,95.30
2018-03-14T03:12:08.546Z,95.20
2018-03-14T03:14:36.122Z,95.20
2018-03-14T03:17:03.632Z,95.00
2018-03-14T03:19:31.160Z,95.00
2018-03-14T03:21:58.672Z,95.00
2018-03-14T03:24:26.207Z,94.50
2018-03-14T03:26:53.740Z,94.90
2018-03-14T03:29:21.350Z,95.00
2018-03-14T03:31:48.881Z,94.90
2018-03-14T03:34:16.395Z,94.30
2018-03-14T03:36:43.923Z,94.30
2018-03-14T03:39:11.433Z,94.30
2018-03-14T03:41:38.985Z,94.40
2018-03-14T03:44:07.270Z,94.00
2018-03-14T03:46:35.557Z,93.90
2018-03-14T03:49:03.850Z,93.80
2018-03-14T03:51:31.377Z,94.10
2018-03-14T03:53:58.888Z,94.00
2018-03-14T03:56:26.484Z,93.70
2018-03-14T03:58:54.754Z,93.70
2018-03-14T04:01:22.284Z,93.70
2018-03-14T04:03:49.798Z,93.60
2018-03-14T04:06:17.338Z,93.90
2018-03-14T04:08:44.848Z,93.60
2018-03-14T04:11:13.144Z,93.80
2018-03-14T04:13:41.413Z,93.90
2018-03-14T04:16:09.033Z,93.90
2018-03-14T04:18:36.544Z,94.00
2018-03-14T04:21:04.080Z,94.00
2018-03-14T04:23:31.583Z,93.90
2018-03-14T04:25:59.092Z,93.80
2018-03-14T04:28:27.396Z,93.90
2018-03-14T04:30:54.900Z,93.90
2018-03-14T04:33:22.428Z,94.00
2018-03-14T04:35:49.949Z,94.00
2018-03-14T04:38:17.490Z,94.00
2018-03-14T04:40:45.000Z,94.30
2018-03-14T04:43:12.525Z,94.10
2018-03-14T04:45:40.029Z,94.20
2018-03-14T04:48:07.557Z,94.20
2018-03-14T04:50:35.832Z,94.20
2018-03-14T04:53:03.362Z,94.20
2018-03-14T04:55:30.872Z,94.40
2018-03-14T04:57:58.401Z,94.10
2018-03-14T05:00:25.906Z,94.10
2018-03-14T05:02:53.432Z,94.10
2018-03-14T05:05:21.001Z,94.70
2018-03-14T05:07:48.548Z,94.60
2018-03-14T05:10:16.840Z,94.70
2018-03-14T05:12:45.135Z,94.70
2018-03-14T05:15:13.415Z,94.70
2018-03-14T05:17:41.708Z,94.70
2018-03-14T05:20:09.296Z,94.70
2018-03-14T05:22:36.836Z,94.60
2018-03-14T05:25:05.113Z,94.20
2018-03-14T05:27:32.642Z,94.20
2018-03-14T05:30:00.149Z,94.10
2018-03-14T05:32:28.460Z,94.20
2018-03-14T05:34:56.745Z,94.00
2018-03-14T05:37:25.050Z,94.20
2018-03-14T05:39:53.349Z,94.00
2018-03-14T05:42:20.868Z,94.00
2018-03-14T05:44:48.408Z,93.90
2018-03-14T05:47:15.920Z,94.00
2018-03-14T05:49:43.456Z,93.90
2018-03-14T05:52:10.972Z,94.00
2018-03-14T05:54:38.591Z,94.10
2018-03-14T05:57:06.110Z,94.30
2018-03-14T05:59:33.648Z,94.30
2018-03-14T06:02:01.153Z,94.30
2018-03-14T06:04:28.705Z,93.90
2018-03-14T06:06:56.217Z,93.60
2018-03-14T06:09:24.508Z,93.60
2018-03-14T06:11:52.783Z,93.90
2018-03-14T06:14:21.091Z,94.00
2018-03-14T06:16:49.367Z,93.90
2018-03-14T06:19:16.896Z,93.90
2018-03-14T06:21:44.409Z,94.00
2018-03-14T06:24:11.933Z,94.00
2018-03-14T06:26:39.557Z,94.40
2018-03-14T06:29:07.860Z,94.10
2018-03-14T06:31:36.135Z,94.30
2018-03-14T06:34:03.678Z,94.30
2018-03-14T06:36:31.320Z,94.30
2018-03-14T06:38:58.896Z,94.10
2018-03-14T06:41:26.415Z,93.60
2018-03-14T06:43:54.115Z,93.40
2018-03-14T06:46:22.411Z,93.20
2018-03-14T06:48:50.681Z,92.90
2018-03-14T06:51:19.720Z,92.70
2018-03-14T06:53:47.245Z,92.70
2018-03-14T06:56:14.862Z,92.80
2018-03-14T06:58:54.152Z,92.40
2018-03-14T07:01:33.661Z,92.90
2018-03-14T07:04:13.072Z,92.40
2018-03-14T07:06:40.600Z,92.20
2018-03-14T07:09:08.109Z,91.80
2018-03-14T07:11:35.635Z,91.90
2018-03-14T07:14:03.155Z,91.40
2018-03-14T07:16:31.494Z,91.20
2018-03-14T07:18:59.028Z,91.10
2018-03-14T07:21:26.566Z,91.10
2018-03-14T07:23:54.076Z,90.90
2018-03-14T07:26:22.380Z,90.20
2018-03-14T07:28:50.690Z,89.90
2018-03-14T07:31:18.217Z,89.90
2018-03-14T07:33:45.725Z,90.20
2018-03-14T07:36:13.265Z,90.30
2018-03-14T07:38:40.764Z,90.00
2018-03-14T07:41:08.346Z,88.80
2018-03-14T07:43:35.917Z,88.30
2018-03-14T07:46:03.580Z,87.30
2018-03-14T07:48:31.323Z,87.40
2018-03-14T07:50:59.671Z,85.60
2018-03-14T07:53:27.167Z,85.60
2018-03-14T07:55:54.697Z,84.40
2018-03-14T07:58:22.276Z,84.60
2018-03-14T08:00:49.818Z,82.60
2018-03-14T08:03:18.135Z,81.10
2018-03-14T08:05:45.725Z,81.00
2018-03-14T08:08:13.208Z,81.80
2018-03-14T08:10:40.865Z,82.00
2018-03-14T08:13:08.456Z,80.90
2018-03-14T08:15:35.986Z,80.90
2018-03-14T08:18:05.295Z,80.40
2018-03-14T08:20:34.348Z,78.50
2018-03-14T08:23:01.939Z,78.60
2018-03-14T08:25:29.460Z,79.00
2018-03-14T08:27:57.136Z,77.50
2018-03-14T08:30:24.636Z,78.80
2018-03-14T08:32:52.159Z,77.60
2018-03-14T08:35:20.440Z,75.80
2018-03-14T08:37:48.740Z,73.90
2018-03-14T08:40:17.018Z,75.30
2018-03-14T08:42:44.544Z,75.30
2018-03-14T08:45:12.051Z,74.70
2018-03-14T08:47:39.608Z,74.10
2018-03-14T08:50:07.112Z,72.70
2018-03-14T08:52:35.404Z,72.50
2018-03-14T08:55:03.688Z,70.50
2018-03-14T08:57:31.985Z,68.20
2018-03-14T09:00:00.269Z,69.80
2018-03-14T09:02:28.557Z,69.70
2018-03-14T09:04:56.839Z,67.10
2018-03-14T09:07:24.541Z,67.00
2018-03-14T09:09:52.111Z,67.80
2018-03-14T09:12:19.638Z,69.40
2018-03-14T09:14:47.597Z,68.00
2018-03-14T09:17:15.119Z,66.70
2018-03-14T09:19:43.387Z,68.80
2018-03-14T09:22:10.907Z,68.10
2018-03-14T09:24:38.427Z,68.50
2018-03-14T09:27:05.952Z,67.60
2018-03-14T09:29:33.498Z,68.20
2018-03-14T09:32:03.234Z,65.80
2018-03-14T09:34:30.767Z,65.80
2018-03-14T09:36:58.282Z,66.00
2018-03-14T09:39:25.816Z,65.80
2018-03-14T09:41:53.325Z,65.70
2018-03-14T09:44:20.856Z,66.50
2018-03-14T09:46:48.363Z,66.20
2018-03-14T09:49:16.668Z,65.40
2018-03-14T09:51:44.177Z,65.40
2018-03-14T09:54:12.939Z,65.20
2018-03-14T09:56:41.913Z,64.60
2018-03-14T09:59:11.108Z,64.60
2018-03-14T10:01:38.612Z,64.60
2018-03-14T10:04:06.140Z,63.90
2018-03-14T10:06:33.772Z,63.60
2018-03-14T10:09:02.099Z,64.10
2018-03-14T10:11:29.616Z,63.90
2018-03-14T10:13:57.182Z,63.30
2018-03-14T10:16:25.456Z,63.40
2018-03-14T10:18:52.984Z,63.40
2018-03-14T10:21:20.514Z,63.20
2018-03-14T10:23:48.816Z,61.10
2018-03-14T10:26:16.326Z,61.10
2018-03-14T10:28:44.612Z,62.10
2018-03-14T10:31:12.122Z,62.10
2018-03-14T10:33:39.649Z,61.90
2018-03-14T10:36:07.160Z,62.20
2018-03-14T10:38:34.693Z,62.20
2018-03-14T10:41:02.262Z,60.00
2018-03-14T10:43:29.760Z,59.30
2018-03-14T10:45:57.278Z,59.80
2018-03-14T10:48:24.811Z,59.90
2018-03-14T10:50:52.341Z,62.60
2018-03-14T10:53:19.866Z,61.10
2018-03-14T10:55:48.176Z,60.30
2018-03-14T10:58:15.704Z,60.20
2018-03-14T11:00:49.783Z,60.20
2018-03-14T11:03:18.081Z,60.30
2018-03-14T11:05:45.648Z,59.50
2018-03-14T11:08:13.154Z,60.60
2018-03-14T11:10:40.672Z,60.70
2018-03-14T11:13:08.948Z,59.70
2018-03-14T11:15:37.274Z,59.30
2018-03-14T11:18:04.822Z,59.80
2018-03-14T11:20:33.151Z,59.30
2018-03-14T11:23:00.684Z,59.30
2018-03-14T11:25:28.979Z,59.10
2018-03-14T11:27:56.496Z,59.10
2018-03-14T11:30:24.056Z,58.90
2018-03-14T11:32:51.568Z,58.30
2018-03-14T11:35:19.097Z,58.30
2018-03-14T11:37:46.634Z,58.10
2018-03-14T11:40:14.968Z,59.40
2018-03-14T11:42:42.472Z,59.30
2018-03-14T11:45:10.013Z,59.30
2018-03-14T11:47:37.526Z,59.00
2018-03-14T11:50:05.801Z,58.00
2018-03-14T11:52:33.336Z,58.00
2018-03-14T11:55:00.874Z,58.40
2018-03-14T11:57:28.465Z,58.70
2018-03-14T11:59:55.983Z,59.20
2018-03-14T12:02:25.013Z,59.70
2018-03-14T12:04:53.292Z,59.10
2018-03-14T12:07:20.866Z,59.00
2018-03-14T12:09:48.382Z,58.40
2018-03-14T12:12:15.924Z,58.20
2018-03-14T12:14:44.207Z,58.00
2018-03-14T12:17:12.526Z,59.00
2018-03-14T12:19:40.040Z,59.00
2018-03-14T12:22:13.210Z,57.50
2018-03-14T12:24:40.721Z,57.50
2018-03-14T12:27:08.256Z,57.20
2018-03-14T12:29:35.767Z,57.20
2018-03-14T12:32:03.298Z,57.20
2018-03-14T12:34:30.813Z,56.70
2018-03-14T12:36:58.354Z,55.70
2018-03-14T12:39:26.774Z,55.60
2018-03-14T12:41:54.312Z,55.60
2018-03-14T12:44:21.825Z,55.10
2018-03-14T12:46:49.360Z,56.60
2018-03-14T12:49:16.890Z,56.40
2018-03-14T12:51:45.301Z,57.70
2018-03-14T12:54:12.812Z,57.70
2018-03-14T12:56:40.340Z,57.50
2018-03-14T12:59:07.856Z,58.30
2018-03-14T13:01:35.390Z,58.70
2018-03-14T13:04:02.973Z,58.60
2018-03-14T13:06:30.495Z,58.30
2018-03-14T13:08:58.801Z,59.70
2018-03-14T13:11:27.086Z,60.60
2018-03-14T13:13:54.652Z,60.50
2018-03-14T13:16:22.936Z,60.20
2018-03-14T13:18:50.469Z,60.10
2018-03-14T13:21:17.980Z,59.70
2018-03-14T13:23:45.528Z,60.00
2018-03-14T13:26:13.772Z,60.00
2018-03-14T13:28:41.303Z,60.20
2018-03-14T13:31:09.077Z,59.50
2018-03-14T13:33:36.619Z,58.60
2018-03-14T13:36:04.192Z,57.80
2018-03-14T13:38:31.737Z,58.50
2018-03-14T13:40:59.264Z,57.70
2018-03-14T13:43:26.801Z,57.70
2018-03-14T13:45:54.317Z,58.00
2018-03-14T13:48:21.852Z,57.90
2018-03-14T13:50:49.365Z,58.00
2018-03-14T13:53:17.665Z,57.30
2018-03-14T13:55:45.946Z,57.00
2018-03-14T13:58:14.244Z,56.60
2018-03-14T14:00:42.526Z,56.90
2018-03-14T14:03:10.818Z,58.80
2018-03-14T14:05:38.332Z,58.70
2018-03-14T14:08:05.900Z,58.50
2018-03-14T14:10:33.445Z,58.70
2018-03-14T14:13:01.079Z,58.60
2018-03-14T14:15:28.581Z,59.40
2018-03-14T14:17:56.860Z,58.70
2018-03-14T14:20:25.163Z,59.20
2018-03-14T14:22:53.442Z,58.40
2018-03-14T14:25:21.728Z,59.30
2018-03-14T14:27:50.020Z,59.50
2018-03-14T14:30:18.329Z,59.40
2018-03-14T14:32:45.840Z,59.40
2018-03-14T14:35:13.367Z,59.60
2018-03-14T14:37:41.681Z,59.40
2018-03-14T14:40:09.243Z,59.40
2018-03-14T14:42:36.758Z,59.40
2018-03-14T14:45:04.309Z,59.80
2018-03-14T14:47:31.839Z,59.80
2018-03-14T14:49:59.388Z,60.00
2018-03-14T14:52:27.002Z,59.90
2018-03-14T14:54:54.530Z,60.60
2018-03-14T14:57:22.046Z,60.10
2018-03-14T14:59:49.588Z,60.40
2018-03-14T15:02:17.114Z,59.80
2018-03-14T15:04:44.660Z,59.40
2018-03-14T15:07:12.174Z,59.80
2018-03-14T15:09:39.704Z,59.80
2018-03-14T15:12:07.217Z,59.50
2018-03-14T15:14:34.853Z,59.70
2018-03-14T15:17:02.429Z,59.00
2018-03-14T15:19:30.033Z,59.10
2018-03-14T15:21:57.547Z,59.20
2018-03-14T15:24:25.828Z,59.60
2018-03-14T15:26:54.128Z,60.10
2018-03-14T15:29:21.652Z,60.10
2018-03-14T15:31:49.304Z,59.70
2018-03-14T15:34:16.816Z,59.30
2018-03-14T15:36:44.349Z,59.60
2018-03-14T15:39:11.862Z,59.70
2018-03-14T15:41:39.425Z,59.20
2018-03-14T15:44:06.944Z,59.60
2018-03-14T15:46:34.481Z,60.50
2018-03-14T15:49:01.999Z,61.20
2018-03-14T15:51:29.562Z,61.50
2018-03-14T15:53:57.073Z,61.70
2018-03-14T15:56:25.938Z,62.10
2018-03-14T15:58:53.514Z,62.10
2018-03-14T16:01:21.076Z,61.90
2018-03-14T16:03:48.656Z,61.70
2018-03-14T16:06:16.183Z,61.60
2018-03-14T16:08:43.692Z,61.90
2018-03-14T16:11:11.229Z,61.00
2018-03-14T16:13:39.567Z,62.20
2018-03-14T16:16:07.098Z,62.20
2018-03-14T16:18:35.387Z,61.80
2018-03-14T16:21:02.913Z,61.80
2018-03-14T16:23:30.568Z,62.40
2018-03-14T16:25:58.094Z,62.30
2018-03-14T16:28:25.736Z,62.20
2018-03-14T16:30:53.262Z,62.50
2018-03-14T16:33:21.566Z,62.20
2018-03-14T16:35:49.067Z,62.20
2018-03-14T16:38:16.604Z,62.10
2018-03-14T16:40:44.881Z,62.20
2018-03-14T16:43:13.179Z,62.60
2018-03-14T16:45:41.454Z,62.70
2018-03-14T16:48:09.057Z,62.70
2018-03-14T16:50:36.567Z,63.00
2018-03-14T16:53:04.106Z,63.00
2018-03-14T16:55:31.624Z,64.20
2018-03-14T16:57:59.917Z,64.00
2018-03-14T17:00:27.429Z,64.00
2018-03-14T17:02:54.970Z,64.30
2018-03-14T17:05:22.472Z,64.40
2018-03-14T17:07:50.007Z,64.80
2018-03-14T17:10:17.531Z,65.80
2018-03-14T17:12:45.060Z,65.20
2018-03-14T17:15:12.575Z,65.80
2018-03-14T17:17:40.139Z,65.70
2018-03-14T17:20:07.645Z,65.70
2018-03-14T17:22:36.000Z,65.90
2018-03-14T17:25:03.516Z,65.90
2018-03-14T17:27:31.060Z,66.50
2018-03-14T17:29:59.003Z,66.20
2018-03-14T17:32:27.299Z,67.00
2018-03-14T17:34:55.593Z,67.40
2018-03-14T17:37:23.156Z,67.40
2018-03-14T17:39:51.462Z,68.30
2018-03-14T17:42:19.040Z,68.10
2018-03-14T17:44:46.848Z,68.80
2018-03-14T17:47:14.389Z,69.10
2018-03-14T17:49:41.913Z,69.40
2018-03-14T17:52:09.428Z,69.70
2018-03-14T17:54:36.965Z,70.10
2018-03-14T17:57:05.288Z,70.70
2018-03-14T17:59:32.875Z,70.70
2018-03-14T18:02:00.382Z,70.80
2018-03-14T18:04:28.691Z,70.90
2018-03-14T18:06:56.196Z,71.00
2018-03-14T18:09:23.726Z,70.90
2018-03-14T18:11:51.232Z,71.20
2018-03-14T18:14:18.810Z,71.40
2018-03-14T18:16:46.324Z,71.40
2018-03-14T18:19:13.949Z,71.70
2018-03-14T18:21:41.521Z,71.70
2018-03-14T18:24:09.093Z,72.00
2018-03-14T18:26:36.604Z,72.70
2018-03-14T18:29:04.128Z,72.60
2018-03-14T18:31:32.436Z,72.60
2018-03-14T18:33:59.980Z,72.60
2018-03-14T18:36:28.248Z,73.20
2018-03-14T18:38:55.772Z,73.00
2018-03-14T18:41:23.285Z,73.20
2018-03-14T18:43:50.838Z,73.20
2018-03-14T18:46:18.348Z,73.20
2018-03-14T18:48:46.690Z,74.20
2018-03-14T18:51:14.215Z,73.60
2018-03-14T18:53:42.491Z,73.80
2018-03-14T18:56:10.013Z,73.10
2018-03-14T18:58:37.524Z,73.10
2018-03-14T19:01:05.053Z,73.10
2018-03-14T19:03:32.560Z,73.20
2018-03-14T19:06:00.086Z,72.80
2018-03-14T19:08:27.662Z,73.20
2018-03-14T19:10:55.220Z,73.20
2018-03-14T19:13:22.752Z,73.30
2018-03-14T19:15:50.293Z,73.60
2018-03-14T19:18:17.810Z,73.70
2018-03-14T19:20:45.364Z,74.00
2018-03-14T19:23:12.876Z,74.10
2018-03-14T19:25:41.176Z,74.50
2018-03-14T19:28:08.680Z,74.50
2018-03-14T19:30:36.253Z,74.70
2018-03-14T19:33:03.771Z,75.00
2018-03-14T19:35:32.087Z,75.40
2018-03-14T19:37:59.607Z,75.30
2018-03-14T19:40:27.149Z,75.20
2018-03-14T19:42:54.660Z,75.50
2018-03-14T19:45:24.248Z,75.50
2018-03-14T19:47:51.789Z,75.50
2018-03-14T19:50:19.354Z,75.50
2018-03-14T19:52:46.884Z,75.60
2018-03-14T19:55:14.445Z,75.70
2018-03-14T19:57:41.964Z,75.90
2018-03-14T20:00:09.539Z,76.10
2018-03-14T20:02:37.056Z,76.20
2018-03-14T20:05:04.831Z,76.30
2018-03-14T20:07:32.484Z,76.30
2018-03-14T20:10:00.290Z,76.40
2018-03-14T20:12:28.624Z,76.40
2018-03-14T20:14:56.907Z,76.60
2018-03-14T20:17:25.264Z,76.70
2018-03-14T20:19:52.776Z,76.70
2018-03-14T20:22:21.200Z,76.90
2018-03-14T20:24:48.721Z,76.60
2018-03-14T20:27:17.040Z,77.50
2018-03-14T20:29:44.800Z,76.80
2018-03-14T20:32:13.220Z,77.10
2018-03-14T20:34:40.778Z,77.30
2018-03-14T20:37:09.756Z,76.60
2018-03-14T20:39:37.259Z,76.50
2018-03-14T20:42:05.560Z,76.50
2018-03-14T20:44:33.134Z,76.50
2018-03-14T20:47:00.678Z,76.60
2018-03-14T20:49:28.964Z,76.50
2018-03-14T20:51:57.356Z,76.70
2018-03-14T20:54:25.781Z,76.80
2018-03-14T20:56:53.314Z,76.80
2018-03-14T20:59:20.831Z,77.00
2018-03-14T21:01:48.370Z,77.60
2018-03-14T21:04:16.642Z,77.50
2018-03-14T21:06:44.176Z,77.50
2018-03-14T21:09:11.680Z,77.60
2018-03-14T21:11:39.196Z,78.20
2018-03-14T21:14:06.732Z,78.40
2018-03-14T21:16:34.238Z,78.30
2018-03-14T21:19:01.760Z,78.30
2018-03-14T21:21:29.290Z,78.20
2018-03-14T21:23:56.820Z,78.70
2018-03-14T21:26:24.325Z,79.00
2018-03-14T21:28:51.933Z,79.20
2018-03-14T21:31:19.448Z,79.20
2018-03-14T21:33:47.928Z,79.10
2018-03-14T21:36:15.435Z,79.10
2018-03-14T21:38:43.106Z,78.40
2018-03-14T21:41:10.608Z,78.90
2018-03-14T21:43:38.132Z,78.80
2018-03-14T21:46:06.453Z,78.90
2018-03-14T21:48:33.976Z,78.90
2018-03-14T21:51:02.249Z,79.30
2018-03-14T21:53:29.773Z,79.30
2018-03-14T21:55:57.277Z,79.60
2018-03-14T21:58:24.892Z,79.70
2018-03-14T22:00:53.198Z,80.20
2018-03-14T22:03:20.784Z,80.20
2018-03-14T22:05:48.303Z,80.60
2018-03-14T22:08:15.978Z,80.70
2018-03-14T22:10:43.372Z,80.80
2018-03-14T22:13:11.692Z,80.60
2018-03-14T22:15:39.272Z,80.50
2018-03-14T22:18:06.808Z,80.40
2018-03-14T22:20:35.105Z,80.40
2018-03-14T22:23:03.639Z,80.50
2018-03-14T22:25:31.189Z,80.40
2018-03-14T22:27:58.753Z,80.30
2018-03-14T22:30:26.375Z,80.20
2018-03-14T22:32:55.901Z,80.10
2018-03-14T22:35:23.456Z,80.00
2018-03-14T22:37:50.964Z,80.20
2018-03-14T22:40:19.274Z,80.40
2018-03-14T22:42:46.859Z,80.30
2018-03-14T22:45:14.400Z,80.50
2018-03-14T22:47:44.618Z,80.40
2018-03-14T22:50:12.179Z,80.30
2018-03-14T22:52:39.708Z,80.40
2018-03-14T22:55:08.032Z,80.40
2018-03-14T22:57:36.853Z,80.40
2018-03-14T23:00:05.617Z,80.40
2018-03-14T23:02:33.132Z,80.90
2018-03-14T23:05:01.099Z,80.30
2018-03-14T23:07:29.409Z,80.20
2018-03-14T23:09:56.930Z,80.40
2018-03-14T23:12:24.544Z,80.40
2018-03-14T23:14:52.066Z,80.30
2018-03-14T23:17:19.582Z,80.40
2018-03-14T23:19:47.121Z,80.60
2018-03-14T23:22:14.720Z,80.70
2018-03-14T23:24:42.228Z,80.90
2018-03-14T23:27:09.759Z,80.60
2018-03-14T23:29:37.267Z,80.60
2018-03-14T23:32:05.564Z,80.70
2018-03-14T23:34:33.090Z,80.70
2018-03-14T23:37:00.612Z,80.90
2018-03-14T23:39:28.120Z,80.90
2018-03-14T23:41:55.654Z,80.90
2018-03-14T23:44:23.168Z,81.00
2018-03-14T23:46:50.729Z,81.10
2018-03-14T23:49:18.249Z,81.10
2018-03-14T23:51:46.541Z,81.00
2018-03-14T23:54:14.812Z,81.00
2018-03-14T23:56:42.341Z,81.00
2018-03-14T23:59:09.853Z,81.10
